createdAt,value
2019-03-27T00:02:09.991Z,74.00
2019-03-27T00:04:46.018Z,73.90
2019-03-27T00:07:22.007Z,73.70
2019-03-27T00:09:58.314Z,73.60
2019-03-27T00:12:33.349Z,73.50
2019-03-27T00:15:15.012Z,73.50
2019-03-27T00:17:50.585Z,73.40
2019-03-27T00:20:28.007Z,73.40
2019-03-27T00:23:04.013Z,73.40
2019-03-27T00:25:39.370Z,73.00
2019-03-27T00:28:14.406Z,73.00
2019-03-27T00:30:52.514Z,73.10
2019-03-27T00:33:28.020Z,72.90
2019-03-27T00:36:03.036Z,72.70
2019-03-27T00:38:40.272Z,72.60
2019-03-27T00:41:25.966Z,72.80
2019-03-27T00:44:02.045Z,72.60
2019-03-27T00:46:38.479Z,72.50
2019-03-27T00:49:18.222Z,72.40
2019-03-27T00:51:56.536Z,72.30
2019-03-27T00:54:33.030Z,72.40
2019-03-27T00:57:12.557Z,72.50
2019-03-27T00:59:48.393Z,72.80
2019-03-27T01:02:25.485Z,73.10
2019-03-27T01:05:02.021Z,73.10
2019-03-27T01:07:39.435Z,73.80
2019-03-27T01:10:32.698Z,73.80
2019-03-27T01:13:09.018Z,74.10
2019-03-27T01:15:45.631Z,74.20
2019-03-27T01:18:27.420Z,74.40
2019-03-27T01:21:05.320Z,74.20
2019-03-27T01:23:41.583Z,74.20
2019-03-27T01:26:17.229Z,74.30
2019-03-27T01:28:56.029Z,74.70
2019-03-27T01:31:31.395Z,74.80
2019-03-27T01:34:09.502Z,75.10
2019-03-27T01:36:46.581Z,75.20
2019-03-27T01:39:26.735Z,75.20
2019-03-27T01:42:09.350Z,75.20
2019-03-27T01:44:49.706Z,75.60
2019-03-27T01:47:28.432Z,75.50
2019-03-27T01:50:07.355Z,75.90
2019-03-27T01:52:43.035Z,75.90
2019-03-27T01:55:19.259Z,76.10
2019-03-27T01:57:56.343Z,76.30
2019-03-27T02:00:33.428Z,75.90
2019-03-27T02:03:12.962Z,75.90
2019-03-27T02:05:50.666Z,76.30
2019-03-27T02:08:31.643Z,76.50
2019-03-27T02:11:11.792Z,76.60
2019-03-27T02:13:52.554Z,76.80
2019-03-27T02:16:35.576Z,77.00
2019-03-27T02:19:16.552Z,77.10
2019-03-27T02:21:58.753Z,77.20
2019-03-27T02:24:35.622Z,77.10
2019-03-27T02:27:14.550Z,77.20
2019-03-27T02:29:51.424Z,77.30
2019-03-27T02:32:30.358Z,77.40
2019-03-27T02:35:06.055Z,77.20
2019-03-27T02:37:42.471Z,77.00
2019-03-27T02:40:20.373Z,77.30
2019-03-27T02:42:56.636Z,77.50
2019-03-27T02:45:35.560Z,77.40
2019-03-27T02:48:13.924Z,77.70
2019-03-27T02:50:51.352Z,77.90
2019-03-27T02:53:28.649Z,78.00
2019-03-27T02:56:06.949Z,78.20
2019-03-27T02:58:43.415Z,77.80
2019-03-27T03:01:20.908Z,77.80
2019-03-27T03:03:58.078Z,77.70
2019-03-27T03:06:33.103Z,77.70
2019-03-27T03:09:08.088Z,77.70
2019-03-27T03:11:44.730Z,77.70
2019-03-27T03:14:21.061Z,77.80
2019-03-27T03:16:56.433Z,78.20
2019-03-27T03:19:43.559Z,78.30
2019-03-27T03:22:28.450Z,78.50
2019-03-27T03:25:03.452Z,78.20
2019-03-27T03:27:41.577Z,77.90
2019-03-27T03:30:17.070Z,77.90
2019-03-27T03:32:53.100Z,77.70
2019-03-27T03:35:36.288Z,77.80
2019-03-27T03:38:12.090Z,77.90
2019-03-27T03:40:48.069Z,78.00
2019-03-27T03:43:23.067Z,78.00
2019-03-27T03:45:59.279Z,78.30
2019-03-27T03:48:35.546Z,78.10
2019-03-27T03:51:14.097Z,78.10
2019-03-27T03:53:52.373Z,78.00
2019-03-27T03:56:35.095Z,78.10
2019-03-27T03:59:10.424Z,78.30
2019-03-27T04:01:53.090Z,78.50
2019-03-27T04:04:35.653Z,78.50
2019-03-27T04:07:12.528Z,78.40
2019-03-27T04:09:48.378Z,78.50
2019-03-27T04:12:26.687Z,78.60
2019-03-27T04:15:07.660Z,78.70
2019-03-27T04:17:47.102Z,78.80
2019-03-27T04:20:24.110Z,78.90
2019-03-27T04:23:02.618Z,78.70
2019-03-27T04:26:07.227Z,78.90
2019-03-27T04:28:18.106Z,79.10
2019-03-27T04:30:55.128Z,79.30
2019-03-27T04:33:31.115Z,79.50
2019-03-27T04:36:07.397Z,79.70
2019-03-27T04:38:44.671Z,79.80
2019-03-27T04:41:20.742Z,79.80
2019-03-27T04:43:57.601Z,79.80
2019-03-27T04:46:33.662Z,79.90
2019-03-27T04:49:10.537Z,80.00
2019-03-27T04:51:44.341Z,80.00
2019-03-27T04:54:39.650Z,80.10
2019-03-27T04:57:23.500Z,80.10
2019-03-27T05:00:01.397Z,80.00
2019-03-27T05:02:44.001Z,80.10
2019-03-27T05:05:18.123Z,80.00
2019-03-27T05:08:03.489Z,80.00
2019-03-27T05:10:41.117Z,80.20
2019-03-27T05:13:18.472Z,80.10
2019-03-27T05:15:54.332Z,80.20
2019-03-27T05:18:31.621Z,80.20
2019-03-27T05:21:07.124Z,80.10
2019-03-27T05:23:43.110Z,80.10
2019-03-27T05:29:48.141Z,79.80
2019-03-27T05:35:55.488Z,79.70
2019-03-27T05:38:42.593Z,79.90
2019-03-27T05:41:19.672Z,79.80
2019-03-27T05:43:57.578Z,79.50
2019-03-27T05:46:36.144Z,79.50
2019-03-27T05:52:53.740Z,79.40
2019-03-27T05:55:34.284Z,78.80
2019-03-27T05:58:13.441Z,78.90
2019-03-27T06:04:05.691Z,78.80
2019-03-27T06:10:22.149Z,78.80
2019-03-27T06:12:57.348Z,78.60
2019-03-27T06:15:37.707Z,78.40
2019-03-27T06:22:03.553Z,77.90
2019-03-27T06:24:41.137Z,77.80
2019-03-27T06:27:20.386Z,77.80
2019-03-27T06:40:20.662Z,79.00
2019-03-27T06:42:59.590Z,78.50
2019-03-27T06:49:03.722Z,80.00
2019-03-27T06:55:07.437Z,78.90
2019-03-27T07:01:11.998Z,78.10
2019-03-27T07:07:16.944Z,77.80
2019-03-27T07:09:55.443Z,77.30
2019-03-27T07:12:42.039Z,76.80
2019-03-27T07:15:24.987Z,76.70
2019-03-27T07:18:00.454Z,77.80
2019-03-27T07:20:40.961Z,78.40
2019-03-27T07:23:17.868Z,77.80
2019-03-27T07:25:59.865Z,78.20
2019-03-27T07:28:41.041Z,78.40
2019-03-27T07:31:16.896Z,78.30
2019-03-27T07:33:52.951Z,78.80
2019-03-27T07:36:29.676Z,77.40
2019-03-27T07:42:57.107Z,76.60
2019-03-27T07:45:36.028Z,76.10
2019-03-27T07:48:11.883Z,76.20
2019-03-27T07:54:17.042Z,75.60
2019-03-27T08:00:28.679Z,74.70
2019-03-27T08:06:33.294Z,74.60
2019-03-27T08:09:09.148Z,74.60
2019-03-27T08:11:47.699Z,74.60
2019-03-27T08:14:28.226Z,74.60
2019-03-27T08:17:04.317Z,74.40
2019-03-27T08:19:41.160Z,74.40
2019-03-27T08:22:17.014Z,74.30
2019-03-27T08:24:54.306Z,73.90
2019-03-27T08:27:41.219Z,73.80
2019-03-27T08:30:23.697Z,73.60
2019-03-27T08:32:58.682Z,73.80
2019-03-27T08:35:34.096Z,73.50
2019-03-27T08:38:10.158Z,73.30
2019-03-27T08:40:47.232Z,73.20
2019-03-27T08:43:28.691Z,73.00
2019-03-27T08:46:05.083Z,72.80
2019-03-27T08:48:47.284Z,72.80
2019-03-27T08:51:23.979Z,72.60
2019-03-27T08:54:07.410Z,72.70
2019-03-27T08:56:42.684Z,72.10
2019-03-27T08:59:17.685Z,72.30
2019-03-27T09:01:55.151Z,71.60
2019-03-27T09:04:29.159Z,71.70
2019-03-27T09:07:09.213Z,71.70
2019-03-27T09:09:44.694Z,71.90
2019-03-27T09:12:30.033Z,71.90
2019-03-27T09:15:06.728Z,71.20
2019-03-27T09:17:47.710Z,71.50
2019-03-27T09:20:25.369Z,71.50
2019-03-27T09:23:02.248Z,71.60
2019-03-27T09:25:38.969Z,71.60
2019-03-27T09:28:17.236Z,71.20
2019-03-27T09:30:57.215Z,71.20
2019-03-27T09:33:35.729Z,71.30
2019-03-27T09:36:17.080Z,70.70
2019-03-27T09:38:58.982Z,71.30
2019-03-27T09:41:38.202Z,71.10
2019-03-27T09:44:13.031Z,69.90
2019-03-27T09:46:52.979Z,69.90
2019-03-27T09:49:29.040Z,70.20
2019-03-27T09:52:04.723Z,69.90
2019-03-27T09:54:50.168Z,69.60
2019-03-27T10:01:04.946Z,72.50
2019-03-27T10:07:07.241Z,68.10
2019-03-27T10:13:23.705Z,72.50
2019-03-27T10:16:05.711Z,71.40
2019-03-27T10:18:50.111Z,69.50
2019-03-27T10:21:27.196Z,70.20
2019-03-27T10:24:03.251Z,69.20
2019-03-27T10:30:28.293Z,69.70
2019-03-27T10:36:36.305Z,69.70
2019-03-27T10:39:19.116Z,69.00
2019-03-27T10:41:59.280Z,69.70
2019-03-27T10:44:34.923Z,69.20
2019-03-27T10:47:13.022Z,67.90
2019-03-27T10:52:21.715Z,66.50
2019-03-27T10:58:41.151Z,67.00
2019-03-27T11:04:44.469Z,66.80
2019-03-27T11:10:37.131Z,65.60
2019-03-27T11:13:12.718Z,66.40
2019-03-27T11:15:53.346Z,66.10
2019-03-27T11:18:30.717Z,66.60
2019-03-27T11:21:30.239Z,67.40
2019-03-27T11:27:34.727Z,67.70
2019-03-27T11:30:13.745Z,66.80
2019-03-27T11:42:18.288Z,65.30
2019-03-27T11:48:24.590Z,65.80
2019-03-27T11:54:28.195Z,64.80
2019-03-27T12:00:36.436Z,64.40
2019-03-27T12:03:10.725Z,63.80
2019-03-27T12:12:24.733Z,64.50
2019-03-27T12:15:06.212Z,63.90
2019-03-27T12:17:41.763Z,64.20
2019-03-27T12:20:17.749Z,64.20
2019-03-27T12:23:01.349Z,64.50
2019-03-27T12:25:44.163Z,64.20
2019-03-27T12:28:20.426Z,64.40
2019-03-27T12:31:00.169Z,64.10
2019-03-27T12:33:36.228Z,64.30
2019-03-27T12:36:13.746Z,64.20
2019-03-27T12:38:55.672Z,64.60
2019-03-27T12:41:33.067Z,63.90
2019-03-27T12:44:07.418Z,64.80
2019-03-27T12:46:52.123Z,65.90
2019-03-27T12:49:27.763Z,65.40
2019-03-27T12:52:05.615Z,65.90
2019-03-27T12:54:39.228Z,65.50
2019-03-27T12:57:16.105Z,65.20
2019-03-27T12:59:57.975Z,65.70
2019-03-27T13:02:37.230Z,64.90
2019-03-27T13:05:16.973Z,65.20
2019-03-27T13:07:53.444Z,64.80
2019-03-27T13:10:28.772Z,64.60
2019-03-27T13:16:44.283Z,64.30
2019-03-27T13:22:48.213Z,64.60
2019-03-27T13:28:53.986Z,65.20
2019-03-27T13:34:58.783Z,65.00
2019-03-27T13:40:53.244Z,65.40
2019-03-27T13:43:32.994Z,65.00
2019-03-27T13:46:13.346Z,65.40
2019-03-27T13:52:16.784Z,65.60
2019-03-27T13:54:52.308Z,64.00
2019-03-27T14:01:24.308Z,64.00
2019-03-27T14:04:02.199Z,65.50
2019-03-27T14:06:44.557Z,65.00
2019-03-27T14:09:17.997Z,64.60
2019-03-27T14:11:55.693Z,65.40
2019-03-27T14:14:30.316Z,64.80
2019-03-27T14:17:12.732Z,65.50
2019-03-27T14:19:49.249Z,64.90
2019-03-27T14:25:57.998Z,65.60
2019-03-27T14:32:09.338Z,66.90
2019-03-27T14:38:16.795Z,67.80
2019-03-27T14:40:57.518Z,67.30
2019-03-27T14:43:45.453Z,67.40
2019-03-27T14:46:29.932Z,67.90
2019-03-27T14:49:04.798Z,67.40
2019-03-27T14:51:44.798Z,67.10
2019-03-27T14:54:18.810Z,67.50
2019-03-27T14:56:55.161Z,68.10
2019-03-27T14:59:30.811Z,68.50
2019-03-27T15:05:38.017Z,68.90
2019-03-27T15:11:42.148Z,68.60
2019-03-27T15:14:18.411Z,67.90
2019-03-27T15:16:54.264Z,68.00
2019-03-27T15:23:05.363Z,68.20
2019-03-27T15:25:41.010Z,68.30
2019-03-27T15:28:16.658Z,68.40
2019-03-27T15:30:52.101Z,68.00
2019-03-27T15:33:33.346Z,68.00
2019-03-27T15:36:10.361Z,67.80
2019-03-27T15:38:51.305Z,67.80
2019-03-27T15:41:35.035Z,67.60
2019-03-27T15:44:14.337Z,66.90
2019-03-27T15:47:02.427Z,66.30
2019-03-27T15:49:36.319Z,65.20
2019-03-27T15:52:13.738Z,65.10
2019-03-27T15:54:55.249Z,65.70
2019-03-27T15:57:36.327Z,65.80
2019-03-27T16:00:15.837Z,67.10
2019-03-27T16:02:58.934Z,68.30
2019-03-27T16:05:34.615Z,68.20
2019-03-27T16:08:11.688Z,68.50
2019-03-27T16:10:57.357Z,68.40
2019-03-27T16:13:33.139Z,68.30
2019-03-27T16:19:51.490Z,68.30
2019-03-27T16:22:26.150Z,68.50
2019-03-27T16:28:19.806Z,68.00
2019-03-27T16:34:39.145Z,68.60
2019-03-27T16:37:22.117Z,68.60
2019-03-27T16:40:05.030Z,68.90
2019-03-27T16:42:43.456Z,68.80
2019-03-27T16:45:20.647Z,68.50
2019-03-27T16:58:17.343Z,69.30
2019-03-27T17:00:58.111Z,70.30
2019-03-27T17:07:03.261Z,70.80
2019-03-27T17:13:15.394Z,70.20
2019-03-27T17:15:54.523Z,70.90
2019-03-27T17:18:43.274Z,70.70
2019-03-27T17:24:55.878Z,70.90
2019-03-27T17:27:35.141Z,71.00
2019-03-27T17:30:11.196Z,70.60
2019-03-27T17:32:49.014Z,70.50
2019-03-27T17:35:29.448Z,70.90
2019-03-27T17:41:34.200Z,70.80
2019-03-27T17:47:30.790Z,70.50
2019-03-27T17:53:44.111Z,70.60
2019-03-27T17:56:21.185Z,71.00
2019-03-27T17:58:56.014Z,70.80
2019-03-27T18:04:58.784Z,71.30
2019-03-27T18:07:40.713Z,70.50
2019-03-27T18:10:15.745Z,71.00
2019-03-27T18:16:22.234Z,71.40
2019-03-27T18:19:03.128Z,70.70
2019-03-27T18:25:23.519Z,71.00
2019-03-27T18:31:26.629Z,71.30
2019-03-27T18:37:48.995Z,71.10
2019-03-27T18:44:05.083Z,71.10
2019-03-27T18:46:43.665Z,71.30
2019-03-27T18:49:19.207Z,71.50
2019-03-27T18:55:39.686Z,70.80
2019-03-27T19:01:55.497Z,71.30
2019-03-27T19:08:11.720Z,71.90
2019-03-27T19:10:59.018Z,72.30
2019-03-27T19:13:38.778Z,72.20
2019-03-27T19:16:16.480Z,72.20
2019-03-27T19:18:51.230Z,72.40
2019-03-27T19:21:26.744Z,72.50
2019-03-27T19:24:13.296Z,72.70
2019-03-27T19:37:04.729Z,73.20
2019-03-27T19:39:42.247Z,73.00
2019-03-27T19:45:50.660Z,73.50
2019-03-27T19:51:54.235Z,73.70
2019-03-27T19:58:02.814Z,73.80
2019-03-27T20:04:06.128Z,74.10
2019-03-27T20:10:11.696Z,74.50
2019-03-27T20:12:48.984Z,74.00
2019-03-27T20:15:24.099Z,73.90
2019-03-27T20:21:37.269Z,73.90
2019-03-27T20:27:18.468Z,74.20
2019-03-27T20:29:54.006Z,74.20
2019-03-27T20:32:29.148Z,74.20
2019-03-27T20:38:39.022Z,74.30
2019-03-27T20:44:43.749Z,74.50
2019-03-27T20:47:20.774Z,74.70
2019-03-27T20:49:56.395Z,74.80
2019-03-27T20:52:34.709Z,75.00
2019-03-27T20:55:10.245Z,74.50
2019-03-27T21:01:16.425Z,74.70
2019-03-27T21:03:51.289Z,74.50
2019-03-27T21:06:28.296Z,74.70
2019-03-27T21:09:08.566Z,74.70
2019-03-27T21:11:47.725Z,74.70
2019-03-27T21:17:28.367Z,74.40
2019-03-27T21:23:31.620Z,74.80
2019-03-27T21:29:36.431Z,75.00
2019-03-27T21:32:12.833Z,75.30
2019-03-27T21:34:48.688Z,75.70
2019-03-27T21:37:25.767Z,75.70
2019-03-27T21:40:01.011Z,75.90
2019-03-27T21:42:36.040Z,75.80
2019-03-27T21:45:12.920Z,75.80
2019-03-27T21:47:48.598Z,76.00
2019-03-27T21:50:24.737Z,76.00
2019-03-27T21:53:02.937Z,76.00
2019-03-27T22:02:11.396Z,76.20
2019-03-27T22:07:51.354Z,76.00
2019-03-27T22:13:54.903Z,76.50
2019-03-27T22:19:57.985Z,77.10
2019-03-27T22:26:01.638Z,77.20
2019-03-27T22:32:04.205Z,77.50
2019-03-27T22:38:09.977Z,77.50
2019-03-27T22:44:19.848Z,77.80
2019-03-27T22:46:55.649Z,77.70
2019-03-27T22:52:59.668Z,77.70
2019-03-27T22:55:48.925Z,77.90
2019-03-27T22:58:13.224Z,78.10
2019-03-27T23:00:55.851Z,78.10
2019-03-27T23:06:48.265Z,78.20
2019-03-27T23:12:51.973Z,78.10
2019-03-27T23:15:42.982Z,78.00
2019-03-27T23:21:59.665Z,77.80
2019-03-27T23:24:35.068Z,78.10
2019-03-27T23:27:09.879Z,78.10
2019-03-27T23:29:46.171Z,78.00
2019-03-27T23:42:18.694Z,78.30
2019-03-27T23:44:54.025Z,78.10
2019-03-27T23:51:08.679Z,78.20
2019-03-27T23:57:24.201Z,78.20
